sensor_id;sensor_type;location;lat;lon;timestamp;temperature;humidity
21355;DHT22;10835;50.148;19.760;2022-10-22T00:01:06;23.00;47.20
21355;DHT22;10835;50.148;19.760;2022-10-22T00:03:34;22.90;47.10
21355;DHT22;10835;50.148;19.760;2022-10-22T00:06:03;22.90;47.50
21355;DHT22;10835;50.148;19.760;2022-10-22T00:08:31;22.90;47.60
21355;DHT22;10835;50.148;19.760;2022-10-22T00:11:01;23.40;47.60
21355;DHT22;10835;50.148;19.760;2022-10-22T00:13:35;23.80;46.90
21355;DHT22;10835;50.148;19.760;2022-10-22T00:16:03;23.90;46.40
21355;DHT22;10835;50.148;19.760;2022-10-22T00:18:31;24.10;45.70
21355;DHT22;10835;50.148;19.760;2022-10-22T00:20:59;24.40;45.20
21355;DHT22;10835;50.148;19.760;2022-10-22T00:23:28;24.70;44.90
21355;DHT22;10835;50.148;19.760;2022-10-22T00:25:56;24.70;44.70
21355;DHT22;10835;50.148;19.760;2022-10-22T00:28:24;24.80;44.80
21355;DHT22;10835;50.148;19.760;2022-10-22T00:30:56;24.90;44.60
21355;DHT22;10835;50.148;19.760;2022-10-22T00:33:25;25.10;44.30
21355;DHT22;10835;50.148;19.760;2022-10-22T00:35:54;25.20;44.20
21355;DHT22;10835;50.148;19.760;2022-10-22T00:38:22;25.20;44.00
21355;DHT22;10835;50.148;19.760;2022-10-22T00:40:50;25.10;43.90
21355;DHT22;10835;50.148;19.760;2022-10-22T00:43:18;25.30;43.80
21355;DHT22;10835;50.148;19.760;2022-10-22T00:45:47;25.30;43.50
21355;DHT22;10835;50.148;19.760;2022-10-22T00:48:18;25.40;43.50
21355;DHT22;10835;50.148;19.760;2022-10-22T00:50:50;25.40;43.40
21355;DHT22;10835;50.148;19.760;2022-10-22T00:53:25;25.50;43.20
21355;DHT22;10835;50.148;19.760;2022-10-22T00:55:54;25.40;43.40
21355;DHT22;10835;50.148;19.760;2022-10-22T00:58:24;25.40;43.60
21355;DHT22;10835;50.148;19.760;2022-10-22T01:00:53;25.30;43.70
21355;DHT22;10835;50.148;19.760;2022-10-22T01:03:24;25.20;43.70
21355;DHT22;10835;50.148;19.760;2022-10-22T01:05:56;25.10;43.90
21355;DHT22;10835;50.148;19.760;2022-10-22T01:08:38;25.10;44.00
21355;DHT22;10835;50.148;19.760;2022-10-22T01:11:15;25.10;43.80
21355;DHT22;10835;50.148;19.760;2022-10-22T01:13:52;25.00;44.20
21355;DHT22;10835;50.148;19.760;2022-10-22T01:16:30;24.90;43.70
21355;DHT22;10835;50.148;19.760;2022-10-22T01:19:17;24.60;44.10
21355;DHT22;10835;50.148;19.760;2022-10-22T01:21:52;24.70;44.10
21355;DHT22;10835;50.148;19.760;2022-10-22T01:24:43;24.70;44.00
21355;DHT22;10835;50.148;19.760;2022-10-22T01:27:24;24.80;44.00
21355;DHT22;10835;50.148;19.760;2022-10-22T01:29:57;24.40;44.40
21355;DHT22;10835;50.148;19.760;2022-10-22T01:32:28;24.70;44.30
21355;DHT22;10835;50.148;19.760;2022-10-22T01:35:00;24.00;44.20
21355;DHT22;10835;50.148;19.760;2022-10-22T01:37:30;24.10;44.90
21355;DHT22;10835;50.148;19.760;2022-10-22T01:40:03;24.30;44.60
21355;DHT22;10835;50.148;19.760;2022-10-22T01:42:32;24.40;44.50
21355;DHT22;10835;50.148;19.760;2022-10-22T01:45:01;24.10;44.00
21355;DHT22;10835;50.148;19.760;2022-10-22T01:47:38;24.10;44.20
21355;DHT22;10835;50.148;19.760;2022-10-22T01:50:31;24.20;44.20
21355;DHT22;10835;50.148;19.760;2022-10-22T01:53:11;23.90;44.10
21355;DHT22;10835;50.148;19.760;2022-10-22T01:55:52;23.50;44.80
21355;DHT22;10835;50.148;19.760;2022-10-22T01:58:33;23.90;45.00
21355;DHT22;10835;50.148;19.760;2022-10-22T02:01:07;23.90;44.40
21355;DHT22;10835;50.148;19.760;2022-10-22T02:03:43;23.90;44.00
21355;DHT22;10835;50.148;19.760;2022-10-22T02:06:16;23.80;44.90
21355;DHT22;10835;50.148;19.760;2022-10-22T02:08:47;23.30;44.60
21355;DHT22;10835;50.148;19.760;2022-10-22T02:11:16;22.70;45.00
21355;DHT22;10835;50.148;19.760;2022-10-22T02:13:47;22.90;45.80
21355;DHT22;10835;50.148;19.760;2022-10-22T02:16:28;23.30;45.50
21355;DHT22;10835;50.148;19.760;2022-10-22T02:19:00;23.50;46.30
21355;DHT22;10835;50.148;19.760;2022-10-22T02:21:30;23.50;44.40
21355;DHT22;10835;50.148;19.760;2022-10-22T02:23:58;23.50;44.40
21355;DHT22;10835;50.148;19.760;2022-10-22T02:26:31;23.40;44.80
21355;DHT22;10835;50.148;19.760;2022-10-22T02:29:05;23.30;44.50
21355;DHT22;10835;50.148;19.760;2022-10-22T02:31:38;23.10;45.00
21355;DHT22;10835;50.148;19.760;2022-10-22T02:34:10;23.20;45.00
21355;DHT22;10835;50.148;19.760;2022-10-22T02:36:41;22.80;45.40
21355;DHT22;10835;50.148;19.760;2022-10-22T02:39:15;23.00;45.30
21355;DHT22;10835;50.148;19.760;2022-10-22T02:41:44;23.10;45.40
21355;DHT22;10835;50.148;19.760;2022-10-22T02:44:12;22.70;45.50
21355;DHT22;10835;50.148;19.760;2022-10-22T02:46:42;22.80;45.50
21355;DHT22;10835;50.148;19.760;2022-10-22T02:49:10;22.70;45.60
21355;DHT22;10835;50.148;19.760;2022-10-22T02:51:38;22.40;46.20
21355;DHT22;10835;50.148;19.760;2022-10-22T02:54:06;22.30;46.10
21355;DHT22;10835;50.148;19.760;2022-10-22T02:56:34;22.50;46.50
21355;DHT22;10835;50.148;19.760;2022-10-22T02:59:03;22.20;46.60
21355;DHT22;10835;50.148;19.760;2022-10-22T03:01:31;22.00;46.40
21355;DHT22;10835;50.148;19.760;2022-10-22T03:04:00;22.00;47.00
21355;DHT22;10835;50.148;19.760;2022-10-22T03:06:28;22.00;48.00
21355;DHT22;10835;50.148;19.760;2022-10-22T03:08:56;22.00;46.90
21355;DHT22;10835;50.148;19.760;2022-10-22T03:11:24;21.90;47.10
21355;DHT22;10835;50.148;19.760;2022-10-22T03:13:52;21.80;47.30
21355;DHT22;10835;50.148;19.760;2022-10-22T03:16:20;21.90;47.30
21355;DHT22;10835;50.148;19.760;2022-10-22T03:18:48;21.90;47.30
21355;DHT22;10835;50.148;19.760;2022-10-22T03:21:23;22.10;47.00
21355;DHT22;10835;50.148;19.760;2022-10-22T03:23:53;22.30;46.50
21355;DHT22;10835;50.148;19.760;2022-10-22T03:26:22;22.20;46.60
21355;DHT22;10835;50.148;19.760;2022-10-22T03:28:50;22.00;47.20
21355;DHT22;10835;50.148;19.760;2022-10-22T03:31:18;22.10;47.00
21355;DHT22;10835;50.148;19.760;2022-10-22T03:33:46;22.10;46.60
21355;DHT22;10835;50.148;19.760;2022-10-22T03:36:14;21.90;46.80
21355;DHT22;10835;50.148;19.760;2022-10-22T03:38:43;21.70;47.30
21355;DHT22;10835;50.148;19.760;2022-10-22T03:41:11;21.80;47.80
21355;DHT22;10835;50.148;19.760;2022-10-22T03:43:39;22.20;47.50
21355;DHT22;10835;50.148;19.760;2022-10-22T03:46:08;21.70;47.00
21355;DHT22;10835;50.148;19.760;2022-10-22T03:48:35;22.00;47.50
21355;DHT22;10835;50.148;19.760;2022-10-22T03:51:04;22.30;46.70
21355;DHT22;10835;50.148;19.760;2022-10-22T03:53:32;22.30;46.30
21355;DHT22;10835;50.148;19.760;2022-10-22T03:56:01;22.10;46.30
21355;DHT22;10835;50.148;19.760;2022-10-22T03:58:30;22.60;45.70
21355;DHT22;10835;50.148;19.760;2022-10-22T04:01:03;22.70;45.30
21355;DHT22;10835;50.148;19.760;2022-10-22T04:03:32;22.20;45.70
21355;DHT22;10835;50.148;19.760;2022-10-22T04:06:01;21.60;46.40
21355;DHT22;10835;50.148;19.760;2022-10-22T04:08:29;22.00;46.70
21355;DHT22;10835;50.148;19.760;2022-10-22T04:10:57;22.30;46.00
21355;DHT22;10835;50.148;19.760;2022-10-22T04:13:27;22.50;45.30
21355;DHT22;10835;50.148;19.760;2022-10-22T04:15:54;22.70;45.00
21355;DHT22;10835;50.148;19.760;2022-10-22T04:18:22;22.50;44.90
21355;DHT22;10835;50.148;19.760;2022-10-22T04:20:50;22.20;45.50
21355;DHT22;10835;50.148;19.760;2022-10-22T04:23:18;21.80;45.70
21355;DHT22;10835;50.148;19.760;2022-10-22T04:25:46;21.10;46.60
21355;DHT22;10835;50.148;19.760;2022-10-22T04:28:14;20.90;47.70
21355;DHT22;10835;50.148;19.760;2022-10-22T04:30:43;20.90;47.90
21355;DHT22;10835;50.148;19.760;2022-10-22T04:33:11;20.90;48.10
21355;DHT22;10835;50.148;19.760;2022-10-22T04:35:39;20.80;48.10
21355;DHT22;10835;50.148;19.760;2022-10-22T04:38:07;20.70;48.40
21355;DHT22;10835;50.148;19.760;2022-10-22T04:40:35;20.20;48.80
21355;DHT22;10835;50.148;19.760;2022-10-22T04:43:03;20.30;49.40
21355;DHT22;10835;50.148;19.760;2022-10-22T04:45:32;19.90;49.60
21355;DHT22;10835;50.148;19.760;2022-10-22T04:48:01;19.90;50.00
21355;DHT22;10835;50.148;19.760;2022-10-22T04:50:29;20.00;50.50
21355;DHT22;10835;50.148;19.760;2022-10-22T04:52:57;20.10;50.20
21355;DHT22;10835;50.148;19.760;2022-10-22T04:55:25;20.60;50.30
21355;DHT22;10835;50.148;19.760;2022-10-22T04:57:53;20.80;49.60
21355;DHT22;10835;50.148;19.760;2022-10-22T05:00:21;21.00;49.50
21355;DHT22;10835;50.148;19.760;2022-10-22T05:02:49;21.50;48.60
21355;DHT22;10835;50.148;19.760;2022-10-22T05:05:19;21.90;47.60
21355;DHT22;10835;50.148;19.760;2022-10-22T05:07:47;22.10;46.70
21355;DHT22;10835;50.148;19.760;2022-10-22T05:10:17;22.30;46.30
21355;DHT22;10835;50.148;19.760;2022-10-22T05:12:45;22.40;45.90
21355;DHT22;10835;50.148;19.760;2022-10-22T05:15:13;22.50;46.60
21355;DHT22;10835;50.148;19.760;2022-10-22T05:17:41;22.50;45.70
21355;DHT22;10835;50.148;19.760;2022-10-22T05:20:09;22.40;45.90
21355;DHT22;10835;50.148;19.760;2022-10-22T05:22:39;22.60;45.00
21355;DHT22;10835;50.148;19.760;2022-10-22T05:25:07;22.80;44.60
21355;DHT22;10835;50.148;19.760;2022-10-22T05:27:35;22.90;44.60
21355;DHT22;10835;50.148;19.760;2022-10-22T05:30:05;23.00;43.90
21355;DHT22;10835;50.148;19.760;2022-10-22T05:32:33;23.10;43.70
21355;DHT22;10835;50.148;19.760;2022-10-22T05:35:01;23.10;43.30
21355;DHT22;10835;50.148;19.760;2022-10-22T05:37:29;23.10;43.30
21355;DHT22;10835;50.148;19.760;2022-10-22T05:39:59;23.00;43.70
21355;DHT22;10835;50.148;19.760;2022-10-22T05:42:47;22.80;44.00
21355;DHT22;10835;50.148;19.760;2022-10-22T05:45:15;22.90;44.30
21355;DHT22;10835;50.148;19.760;2022-10-22T05:47:43;23.00;44.00
21355;DHT22;10835;50.148;19.760;2022-10-22T05:50:12;23.10;43.90
21355;DHT22;10835;50.148;19.760;2022-10-22T05:52:40;23.10;43.80
21355;DHT22;10835;50.148;19.760;2022-10-22T05:55:10;23.20;43.90
21355;DHT22;10835;50.148;19.760;2022-10-22T05:57:38;23.20;43.70
21355;DHT22;10835;50.148;19.760;2022-10-22T06:00:08;23.10;44.10
21355;DHT22;10835;50.148;19.760;2022-10-22T06:02:41;22.50;44.90
21355;DHT22;10835;50.148;19.760;2022-10-22T06:05:09;22.20;45.70
21355;DHT22;10835;50.148;19.760;2022-10-22T06:07:37;22.30;46.30
21355;DHT22;10835;50.148;19.760;2022-10-22T06:10:07;22.50;46.50
21355;DHT22;10835;50.148;19.760;2022-10-22T06:12:37;22.20;45.80
21355;DHT22;10835;50.148;19.760;2022-10-22T06:15:06;21.70;46.40
21355;DHT22;10835;50.148;19.760;2022-10-22T06:17:34;22.20;48.10
21355;DHT22;10835;50.148;19.760;2022-10-22T06:20:03;22.60;47.70
21355;DHT22;10835;50.148;19.760;2022-10-22T06:22:36;23.10;47.10
21355;DHT22;10835;50.148;19.760;2022-10-22T06:25:05;23.40;47.00
21355;DHT22;10835;50.148;19.760;2022-10-22T06:27:34;23.80;46.70
21355;DHT22;10835;50.148;19.760;2022-10-22T06:30:04;24.00;46.30
21355;DHT22;10835;50.148;19.760;2022-10-22T06:32:32;24.30;45.80
21355;DHT22;10835;50.148;19.760;2022-10-22T06:35:00;24.60;45.10
21355;DHT22;10835;50.148;19.760;2022-10-22T06:37:28;24.80;45.40
21355;DHT22;10835;50.148;19.760;2022-10-22T06:39:56;24.50;45.10
21355;DHT22;10835;50.148;19.760;2022-10-22T06:42:24;24.40;45.30
21355;DHT22;10835;50.148;19.760;2022-10-22T06:44:52;24.20;45.60
21355;DHT22;10835;50.148;19.760;2022-10-22T06:47:22;23.60;46.60
21355;DHT22;10835;50.148;19.760;2022-10-22T06:49:50;23.50;46.20
21355;DHT22;10835;50.148;19.760;2022-10-22T06:52:18;22.90;46.40
21355;DHT22;10835;50.148;19.760;2022-10-22T06:54:46;22.50;47.50
21355;DHT22;10835;50.148;19.760;2022-10-22T06:57:14;22.40;48.00
21355;DHT22;10835;50.148;19.760;2022-10-22T06:59:42;23.00;47.90
21355;DHT22;10835;50.148;19.760;2022-10-22T07:02:10;23.50;47.50
21355;DHT22;10835;50.148;19.760;2022-10-22T07:04:42;23.20;46.80
21355;DHT22;10835;50.148;19.760;2022-10-22T07:07:10;23.80;47.40
21355;DHT22;10835;50.148;19.760;2022-10-22T07:09:40;23.60;46.70
21355;DHT22;10835;50.148;19.760;2022-10-22T07:12:11;24.10;46.50
21355;DHT22;10835;50.148;19.760;2022-10-22T07:14:39;24.30;45.80
21355;DHT22;10835;50.148;19.760;2022-10-22T07:17:07;24.20;45.80
21355;DHT22;10835;50.148;19.760;2022-10-22T07:19:35;24.60;45.80
21355;DHT22;10835;50.148;19.760;2022-10-22T07:22:07;24.20;45.30
21355;DHT22;10835;50.148;19.760;2022-10-22T07:24:35;24.60;46.40
21355;DHT22;10835;50.148;19.760;2022-10-22T07:27:05;24.70;45.60
21355;DHT22;10835;50.148;19.760;2022-10-22T07:29:37;24.70;45.70
21355;DHT22;10835;50.148;19.760;2022-10-22T07:32:05;25.10;44.80
21355;DHT22;10835;50.148;19.760;2022-10-22T07:34:33;25.10;44.10
21355;DHT22;10835;50.148;19.760;2022-10-22T07:37:06;25.10;44.40
21355;DHT22;10835;50.148;19.760;2022-10-22T07:39:34;25.20;44.40
21355;DHT22;10835;50.148;19.760;2022-10-22T07:42:02;25.30;44.70
21355;DHT22;10835;50.148;19.760;2022-10-22T07:44:30;25.40;44.00
21355;DHT22;10835;50.148;19.760;2022-10-22T07:46:58;25.50;44.40
21355;DHT22;10835;50.148;19.760;2022-10-22T07:49:26;25.50;43.60
21355;DHT22;10835;50.148;19.760;2022-10-22T07:51:54;25.10;43.40
21355;DHT22;10835;50.148;19.760;2022-10-22T07:54:24;25.40;44.50
21355;DHT22;10835;50.148;19.760;2022-10-22T07:56:52;25.60;44.40
21355;DHT22;10835;50.148;19.760;2022-10-22T07:59:20;25.80;44.00
21355;DHT22;10835;50.148;19.760;2022-10-22T08:01:48;25.60;43.70
21355;DHT22;10835;50.148;19.760;2022-10-22T08:04:16;25.90;43.50
21355;DHT22;10835;50.148;19.760;2022-10-22T08:06:44;26.10;43.80
21355;DHT22;10835;50.148;19.760;2022-10-22T08:09:13;26.40;42.90
21355;DHT22;10835;50.148;19.760;2022-10-22T08:11:43;26.30;42.20
21355;DHT22;10835;50.148;19.760;2022-10-22T08:14:12;25.60;42.30
21355;DHT22;10835;50.148;19.760;2022-10-22T08:16:40;25.40;43.20
21355;DHT22;10835;50.148;19.760;2022-10-22T08:19:22;25.10;44.00
21355;DHT22;10835;50.148;19.760;2022-10-22T08:21:50;24.60;44.70
21355;DHT22;10835;50.148;19.760;2022-10-22T08:24:18;25.00;44.60
21355;DHT22;10835;50.148;19.760;2022-10-22T08:26:46;25.00;44.70
21355;DHT22;10835;50.148;19.760;2022-10-22T08:29:14;24.70;45.50
21355;DHT22;10835;50.148;19.760;2022-10-22T08:31:42;25.10;45.10
21355;DHT22;10835;50.148;19.760;2022-10-22T08:34:10;25.20;45.50
21355;DHT22;10835;50.148;19.760;2022-10-22T08:36:42;25.50;45.40
21355;DHT22;10835;50.148;19.760;2022-10-22T08:39:10;25.90;44.40
21355;DHT22;10835;50.148;19.760;2022-10-22T08:41:45;26.00;43.90
21355;DHT22;10835;50.148;19.760;2022-10-22T08:44:28;26.20;44.20
21355;DHT22;10835;50.148;19.760;2022-10-22T08:47:14;26.10;43.50
21355;DHT22;10835;50.148;19.760;2022-10-22T08:49:48;25.80;43.30
21355;DHT22;10835;50.148;19.760;2022-10-22T08:52:19;25.80;43.70
21355;DHT22;10835;50.148;19.760;2022-10-22T08:54:50;25.60;43.70
21355;DHT22;10835;50.148;19.760;2022-10-22T08:57:39;25.80;43.90
21355;DHT22;10835;50.148;19.760;2022-10-22T09:00:13;25.40;44.20
21355;DHT22;10835;50.148;19.760;2022-10-22T09:02:51;25.50;43.80
21355;DHT22;10835;50.148;19.760;2022-10-22T09:05:32;25.70;43.50
21355;DHT22;10835;50.148;19.760;2022-10-22T09:08:04;25.80;43.50
21355;DHT22;10835;50.148;19.760;2022-10-22T09:10:35;26.10;43.80
21355;DHT22;10835;50.148;19.760;2022-10-22T09:13:05;26.30;43.50
21355;DHT22;10835;50.148;19.760;2022-10-22T09:15:33;26.50;43.40
21355;DHT22;10835;50.148;19.760;2022-10-22T09:18:17;26.60;42.80
21355;DHT22;10835;50.148;19.760;2022-10-22T09:20:53;26.40;42.00
21355;DHT22;10835;50.148;19.760;2022-10-22T09:23:30;26.40;42.00
21355;DHT22;10835;50.148;19.760;2022-10-22T09:25:59;26.30;43.40
21355;DHT22;10835;50.148;19.760;2022-10-22T09:28:27;26.30;42.80
21355;DHT22;10835;50.148;19.760;2022-10-22T09:30:55;26.00;42.90
21355;DHT22;10835;50.148;19.760;2022-10-22T09:33:30;26.00;43.00
21355;DHT22;10835;50.148;19.760;2022-10-22T09:36:00;26.00;44.20
21355;DHT22;10835;50.148;19.760;2022-10-22T09:38:32;25.60;43.20
21355;DHT22;10835;50.148;19.760;2022-10-22T09:41:01;25.80;43.70
21355;DHT22;10835;50.148;19.760;2022-10-22T09:43:30;26.10;43.80
21355;DHT22;10835;50.148;19.760;2022-10-22T09:46:00;25.50;43.60
21355;DHT22;10835;50.148;19.760;2022-10-22T09:48:31;25.40;44.70
21355;DHT22;10835;50.148;19.760;2022-10-22T09:51:05;25.10;45.00
21355;DHT22;10835;50.148;19.760;2022-10-22T09:53:37;25.10;45.00
21355;DHT22;10835;50.148;19.760;2022-10-22T09:56:09;25.20;45.00
21355;DHT22;10835;50.148;19.760;2022-10-22T09:58:41;25.10;44.70
21355;DHT22;10835;50.148;19.760;2022-10-22T10:01:17;25.50;45.00
21355;DHT22;10835;50.148;19.760;2022-10-22T10:03:47;25.40;44.40
21355;DHT22;10835;50.148;19.760;2022-10-22T10:06:18;25.30;44.30
21355;DHT22;10835;50.148;19.760;2022-10-22T10:08:48;25.10;45.20
21355;DHT22;10835;50.148;19.760;2022-10-22T10:11:22;24.60;45.30
21355;DHT22;10835;50.148;19.760;2022-10-22T10:14:06;24.90;45.50
21355;DHT22;10835;50.148;19.760;2022-10-22T10:16:46;24.90;45.20
21355;DHT22;10835;50.148;19.760;2022-10-22T10:19:26;25.40;45.00
21355;DHT22;10835;50.148;19.760;2022-10-22T10:22:03;25.20;45.10
21355;DHT22;10835;50.148;19.760;2022-10-22T10:24:44;25.20;45.00
21355;DHT22;10835;50.148;19.760;2022-10-22T10:27:22;25.50;45.10
21355;DHT22;10835;50.148;19.760;2022-10-22T10:29:57;25.10;45.40
21355;DHT22;10835;50.148;19.760;2022-10-22T10:32:37;25.00;45.60
21355;DHT22;10835;50.148;19.760;2022-10-22T10:35:19;25.10;45.80
21355;DHT22;10835;50.148;19.760;2022-10-22T10:38:00;25.10;45.50
21355;DHT22;10835;50.148;19.760;2022-10-22T10:40:37;24.90;45.50
21355;DHT22;10835;50.148;19.760;2022-10-22T10:43:10;24.80;46.00
21355;DHT22;10835;50.148;19.760;2022-10-22T10:45:47;25.00;46.10
21355;DHT22;10835;50.148;19.760;2022-10-22T10:48:38;24.70;46.50
21355;DHT22;10835;50.148;19.760;2022-10-22T10:51:28;24.80;46.90
21355;DHT22;10835;50.148;19.760;2022-10-22T10:54:12;24.60;46.60
21355;DHT22;10835;50.148;19.760;2022-10-22T10:56:47;24.10;47.40
21355;DHT22;10835;50.148;19.760;2022-10-22T10:59:25;24.40;47.70
21355;DHT22;10835;50.148;19.760;2022-10-22T11:02:09;23.90;48.50
21355;DHT22;10835;50.148;19.760;2022-10-22T11:04:49;23.80;49.20
21355;DHT22;10835;50.148;19.760;2022-10-22T11:07:25;23.80;49.60
21355;DHT22;10835;50.148;19.760;2022-10-22T11:10:07;23.90;49.40
21355;DHT22;10835;50.148;19.760;2022-10-22T11:12:42;23.60;49.80
21355;DHT22;10835;50.148;19.760;2022-10-22T11:15:22;23.60;49.70
21355;DHT22;10835;50.148;19.760;2022-10-22T11:17:54;23.20;50.60
21355;DHT22;10835;50.148;19.760;2022-10-22T11:20:27;23.60;50.30
21355;DHT22;10835;50.148;19.760;2022-10-22T11:23:03;23.40;50.90
21355;DHT22;10835;50.148;19.760;2022-10-22T11:25:49;23.60;50.70
21355;DHT22;10835;50.148;19.760;2022-10-22T11:28:22;24.30;50.40
21355;DHT22;10835;50.148;19.760;2022-10-22T11:30:57;24.30;49.60
21355;DHT22;10835;50.148;19.760;2022-10-22T11:33:34;24.20;49.70
21355;DHT22;10835;50.148;19.760;2022-10-22T11:36:04;24.40;50.00
21355;DHT22;10835;50.148;19.760;2022-10-22T11:38:33;24.20;49.70
21355;DHT22;10835;50.148;19.760;2022-10-22T11:41:06;24.60;50.00
21355;DHT22;10835;50.148;19.760;2022-10-22T11:46:37;25.10;49.10
21355;DHT22;10835;50.148;19.760;2022-10-22T11:49:17;25.90;48.40
21355;DHT22;10835;50.148;19.760;2022-10-22T11:51:46;26.20;48.70
21355;DHT22;10835;50.148;19.760;2022-10-22T11:54:37;26.40;48.10
21355;DHT22;10835;50.148;19.760;2022-10-22T11:57:19;26.60;47.40
21355;DHT22;10835;50.148;19.760;2022-10-22T11:59:50;26.80;47.10
21355;DHT22;10835;50.148;19.760;2022-10-22T12:02:33;27.00;46.70
21355;DHT22;10835;50.148;19.760;2022-10-22T12:08:24;27.20;46.40
21355;DHT22;10835;50.148;19.760;2022-10-22T12:11:01;27.30;46.10
21355;DHT22;10835;50.148;19.760;2022-10-22T12:13:32;27.40;46.20
21355;DHT22;10835;50.148;19.760;2022-10-22T12:16:02;27.50;46.30
21355;DHT22;10835;50.148;19.760;2022-10-22T12:18:40;27.60;46.10
21355;DHT22;10835;50.148;19.760;2022-10-22T12:21:11;27.50;46.00
21355;DHT22;10835;50.148;19.760;2022-10-22T12:23:39;27.60;46.10
21355;DHT22;10835;50.148;19.760;2022-10-22T12:26:22;27.60;46.00
21355;DHT22;10835;50.148;19.760;2022-10-22T12:28:50;27.60;46.20
21355;DHT22;10835;50.148;19.760;2022-10-22T12:31:18;27.70;46.20
21355;DHT22;10835;50.148;19.760;2022-10-22T12:33:54;27.40;45.40
21355;DHT22;10835;50.148;19.760;2022-10-22T12:36:22;26.50;46.20
21355;DHT22;10835;50.148;19.760;2022-10-22T12:38:52;26.50;47.40
21355;DHT22;10835;50.148;19.760;2022-10-22T12:41:20;26.10;47.90
21355;DHT22;10835;50.148;19.760;2022-10-22T12:43:48;25.80;48.80
21355;DHT22;10835;50.148;19.760;2022-10-22T12:46:16;25.80;49.00
21355;DHT22;10835;50.148;19.760;2022-10-22T12:48:47;25.60;48.90
21355;DHT22;10835;50.148;19.760;2022-10-22T12:51:18;25.40;49.80
21355;DHT22;10835;50.148;19.760;2022-10-22T12:53:49;25.30;50.00
21355;DHT22;10835;50.148;19.760;2022-10-22T12:56:21;25.50;50.50
21355;DHT22;10835;50.148;19.760;2022-10-22T12:58:54;25.40;50.30
21355;DHT22;10835;50.148;19.760;2022-10-22T13:01:25;25.00;50.40
21355;DHT22;10835;50.148;19.760;2022-10-22T13:04:06;25.40;50.80
21355;DHT22;10835;50.148;19.760;2022-10-22T13:06:46;25.50;50.30
21355;DHT22;10835;50.148;19.760;2022-10-22T13:09:17;25.90;50.10
21355;DHT22;10835;50.148;19.760;2022-10-22T13:11:54;26.00;50.30
21355;DHT22;10835;50.148;19.760;2022-10-22T13:14:27;26.00;49.50
21355;DHT22;10835;50.148;19.760;2022-10-22T13:17:05;26.10;49.50
21355;DHT22;10835;50.148;19.760;2022-10-22T13:19:41;26.20;49.40
21355;DHT22;10835;50.148;19.760;2022-10-22T13:22:28;26.20;49.70
21355;DHT22;10835;50.148;19.760;2022-10-22T13:24:58;26.30;49.90
21355;DHT22;10835;50.148;19.760;2022-10-22T13:27:27;26.30;49.30
21355;DHT22;10835;50.148;19.760;2022-10-22T13:29:56;26.40;49.60
21355;DHT22;10835;50.148;19.760;2022-10-22T13:32:29;26.50;49.60
21355;DHT22;10835;50.148;19.760;2022-10-22T13:35:00;26.60;49.50
21355;DHT22;10835;50.148;19.760;2022-10-22T13:37:31;26.80;49.00
21355;DHT22;10835;50.148;19.760;2022-10-22T13:40:04;27.00;48.80
21355;DHT22;10835;50.148;19.760;2022-10-22T13:42:37;27.10;48.50
21355;DHT22;10835;50.148;19.760;2022-10-22T13:45:07;27.20;48.20
21355;DHT22;10835;50.148;19.760;2022-10-22T13:47:35;27.30;48.10
21355;DHT22;10835;50.148;19.760;2022-10-22T13:50:12;27.30;48.00
21355;DHT22;10835;50.148;19.760;2022-10-22T13:52:43;27.40;47.90
21355;DHT22;10835;50.148;19.760;2022-10-22T13:55:17;27.40;47.90
21355;DHT22;10835;50.148;19.760;2022-10-22T13:57:46;27.40;47.90
21355;DHT22;10835;50.148;19.760;2022-10-22T14:00:17;27.40;48.00
21355;DHT22;10835;50.148;19.760;2022-10-22T14:02:46;27.50;47.90
21355;DHT22;10835;50.148;19.760;2022-10-22T14:05:17;27.60;47.70
21355;DHT22;10835;50.148;19.760;2022-10-22T14:07:46;27.60;47.50
21355;DHT22;10835;50.148;19.760;2022-10-22T14:10:20;27.60;47.60
21355;DHT22;10835;50.148;19.760;2022-10-22T14:12:49;27.70;47.40
21355;DHT22;10835;50.148;19.760;2022-10-22T14:15:21;27.70;47.50
21355;DHT22;10835;50.148;19.760;2022-10-22T14:17:52;27.70;47.50
21355;DHT22;10835;50.148;19.760;2022-10-22T14:20:24;27.70;47.50
21355;DHT22;10835;50.148;19.760;2022-10-22T14:22:53;27.70;47.30
21355;DHT22;10835;50.148;19.760;2022-10-22T14:25:23;27.70;47.20
21355;DHT22;10835;50.148;19.760;2022-10-22T14:27:52;27.50;47.70
21355;DHT22;10835;50.148;19.760;2022-10-22T14:30:22;27.30;48.00
21355;DHT22;10835;50.148;19.760;2022-10-22T14:32:51;27.20;48.30
21355;DHT22;10835;50.148;19.760;2022-10-22T14:35:22;27.20;48.40
21355;DHT22;10835;50.148;19.760;2022-10-22T14:37:51;27.10;48.20
21355;DHT22;10835;50.148;19.760;2022-10-22T14:40:19;26.80;48.50
21355;DHT22;10835;50.148;19.760;2022-10-22T14:42:48;26.80;48.90
21355;DHT22;10835;50.148;19.760;2022-10-22T14:45:18;26.70;49.00
21355;DHT22;10835;50.148;19.760;2022-10-22T14:47:47;26.50;49.00
21355;DHT22;10835;50.148;19.760;2022-10-22T14:50:15;26.10;49.60
21355;DHT22;10835;50.148;19.760;2022-10-22T14:52:45;26.00;50.50
21355;DHT22;10835;50.148;19.760;2022-10-22T14:55:14;26.10;50.20
21355;DHT22;10835;50.148;19.760;2022-10-22T14:57:43;25.80;50.30
21355;DHT22;10835;50.148;19.760;2022-10-22T15:00:14;25.60;50.60
21355;DHT22;10835;50.148;19.760;2022-10-22T15:02:42;25.40;51.10
21355;DHT22;10835;50.148;19.760;2022-10-22T15:05:11;25.60;51.60
21355;DHT22;10835;50.148;19.760;2022-10-22T15:07:39;25.30;50.90
21355;DHT22;10835;50.148;19.760;2022-10-22T15:10:09;24.90;52.10
21355;DHT22;10835;50.148;19.760;2022-10-22T15:12:37;24.80;52.10
21355;DHT22;10835;50.148;19.760;2022-10-22T15:15:06;24.90;52.90
21355;DHT22;10835;50.148;19.760;2022-10-22T15:17:34;24.90;52.70
21355;DHT22;10835;50.148;19.760;2022-10-22T15:20:03;25.20;52.30
21355;DHT22;10835;50.148;19.760;2022-10-22T15:22:32;25.00;52.60
21355;DHT22;10835;50.148;19.760;2022-10-22T15:25:06;24.80;52.50
21355;DHT22;10835;50.148;19.760;2022-10-22T15:27:36;25.10;52.90
21355;DHT22;10835;50.148;19.760;2022-10-22T15:30:05;25.50;52.30
21355;DHT22;10835;50.148;19.760;2022-10-22T15:32:33;25.50;51.90
21355;DHT22;10835;50.148;19.760;2022-10-22T15:35:02;25.60;51.80
21355;DHT22;10835;50.148;19.760;2022-10-22T15:37:31;25.80;51.70
21355;DHT22;10835;50.148;19.760;2022-10-22T15:40:00;25.80;51.40
21355;DHT22;10835;50.148;19.760;2022-10-22T15:42:29;25.80;51.40
21355;DHT22;10835;50.148;19.760;2022-10-22T15:44:59;25.90;51.50
21355;DHT22;10835;50.148;19.760;2022-10-22T15:47:27;26.00;51.40